Home

PKWA Terminal Aerodrome Forecast (TAF)small logo


TAF provided by NWS Guam
2014/09/16 07:30
TAF PKWA 160722Z 1607/1706 15011KT P6SM VCSH SCT030 BKN100 
      TEMPO 1607/1609 5SM TSRA BKN015CB BKN025 BKN050

      



Site Map | Contact Us | Copyright © 2007 Atmospheric Technology Services Company. All rights reserved.